sensor_id;sensor_type;location;lat;lon;timestamp;temperature;humidity
4564;DHT22;2294;51.818;8.484;2023-03-19T00:01:52;13.60;99.90
4564;DHT22;2294;51.818;8.484;2023-03-19T00:04:19;13.50;99.90
4564;DHT22;2294;51.818;8.484;2023-03-19T00:06:48;13.60;99.90
4564;DHT22;2294;51.818;8.484;2023-03-19T00:09:15;13.40;99.90
4564;DHT22;2294;51.818;8.484;2023-03-19T00:11:42;13.30;99.90
4564;DHT22;2294;51.818;8.484;2023-03-19T00:14:09;13.20;99.90
4564;DHT22;2294;51.818;8.484;2023-03-19T00:16:36;13.30;99.90
4564;DHT22;2294;51.818;8.484;2023-03-19T00:19:03;13.30;99.90
4564;DHT22;2294;51.818;8.484;2023-03-19T00:21:30;13.30;99.90
4564;DHT22;2294;51.818;8.484;2023-03-19T00:23:59;13.20;99.90
4564;DHT22;2294;51.818;8.484;2023-03-19T00:26:27;13.30;99.90
4564;DHT22;2294;51.818;8.484;2023-03-19T00:28:55;13.30;99.90
4564;DHT22;2294;51.818;8.484;2023-03-19T00:31:22;13.20;99.90
4564;DHT22;2294;51.818;8.484;2023-03-19T00:33:49;13.20;99.90
4564;DHT22;2294;51.818;8.484;2023-03-19T00:36:17;13.20;99.90
4564;DHT22;2294;51.818;8.484;2023-03-19T00:38:45;13.10;99.90
4564;DHT22;2294;51.818;8.484;2023-03-19T00:41:13;13.10;99.90
4564;DHT22;2294;51.818;8.484;2023-03-19T00:43:41;13.10;99.90
4564;DHT22;2294;51.818;8.484;2023-03-19T00:46:08;13.10;99.90
4564;DHT22;2294;51.818;8.484;2023-03-19T00:48:36;13.00;99.90
4564;DHT22;2294;51.818;8.484;2023-03-19T00:51:03;13.00;99.90
4564;DHT22;2294;51.818;8.484;2023-03-19T00:53:31;13.00;99.90
4564;DHT22;2294;51.818;8.484;2023-03-19T00:55:58;13.00;99.90
4564;DHT22;2294;51.818;8.484;2023-03-19T00:58:27;12.80;99.90
4564;DHT22;2294;51.818;8.484;2023-03-19T01:00:54;12.80;99.90
4564;DHT22;2294;51.818;8.484;2023-03-19T01:03:21;12.80;99.90
4564;DHT22;2294;51.818;8.484;2023-03-19T01:05:49;12.70;99.90
4564;DHT22;2294;51.818;8.484;2023-03-19T01:08:16;12.60;99.90
4564;DHT22;2294;51.818;8.484;2023-03-19T01:10:44;12.50;99.90
4564;DHT22;2294;51.818;8.484;2023-03-19T01:13:12;12.40;99.90
4564;DHT22;2294;51.818;8.484;2023-03-19T01:15:41;12.40;99.90
4564;DHT22;2294;51.818;8.484;2023-03-19T01:18:10;12.40;99.90
4564;DHT22;2294;51.818;8.484;2023-03-19T01:20:39;12.40;99.90
4564;DHT22;2294;51.818;8.484;2023-03-19T01:23:07;12.40;99.90
4564;DHT22;2294;51.818;8.484;2023-03-19T01:25:34;12.50;99.90
4564;DHT22;2294;51.818;8.484;2023-03-19T01:28:01;12.50;99.90
4564;DHT22;2294;51.818;8.484;2023-03-19T01:30:28;12.60;99.90
4564;DHT22;2294;51.818;8.484;2023-03-19T01:32:57;12.60;99.90
4564;DHT22;2294;51.818;8.484;2023-03-19T01:35:24;12.60;99.90
4564;DHT22;2294;51.818;8.484;2023-03-19T01:37:51;12.70;99.90
4564;DHT22;2294;51.818;8.484;2023-03-19T01:40:18;12.70;99.90
4564;DHT22;2294;51.818;8.484;2023-03-19T01:42:53;12.70;99.90
4564;DHT22;2294;51.818;8.484;2023-03-19T01:45:30;12.80;99.90
4564;DHT22;2294;51.818;8.484;2023-03-19T01:47:58;12.70;99.90
4564;DHT22;2294;51.818;8.484;2023-03-19T01:50:28;12.80;99.90
4564;DHT22;2294;51.818;8.484;2023-03-19T01:52:57;12.90;99.90
4564;DHT22;2294;51.818;8.484;2023-03-19T01:55:24;12.80;99.90
4564;DHT22;2294;51.818;8.484;2023-03-19T01:57:52;12.80;99.90
4564;DHT22;2294;51.818;8.484;2023-03-19T02:00:19;12.90;99.90
4564;DHT22;2294;51.818;8.484;2023-03-19T02:02:50;12.80;99.90
4564;DHT22;2294;51.818;8.484;2023-03-19T02:05:20;13.00;99.90
4564;DHT22;2294;51.818;8.484;2023-03-19T02:07:53;13.10;99.90
4564;DHT22;2294;51.818;8.484;2023-03-19T02:10:21;13.10;99.90
4564;DHT22;2294;51.818;8.484;2023-03-19T02:12:49;13.00;99.90
4564;DHT22;2294;51.818;8.484;2023-03-19T02:15:17;12.90;99.90
4564;DHT22;2294;51.818;8.484;2023-03-19T02:17:44;13.00;99.90
4564;DHT22;2294;51.818;8.484;2023-03-19T02:20:16;12.90;99.90
4564;DHT22;2294;51.818;8.484;2023-03-19T02:22:52;13.00;99.90
4564;DHT22;2294;51.818;8.484;2023-03-19T02:25:26;13.00;99.90
4564;DHT22;2294;51.818;8.484;2023-03-19T02:27:55;13.00;99.90
4564;DHT22;2294;51.818;8.484;2023-03-19T02:30:25;12.90;99.90
4564;DHT22;2294;51.818;8.484;2023-03-19T02:32:52;12.90;99.90
4564;DHT22;2294;51.818;8.484;2023-03-19T02:35:19;12.90;99.90
4564;DHT22;2294;51.818;8.484;2023-03-19T02:37:46;12.90;99.90
4564;DHT22;2294;51.818;8.484;2023-03-19T02:40:16;12.90;99.90
4564;DHT22;2294;51.818;8.484;2023-03-19T02:42:45;13.00;99.90
4564;DHT22;2294;51.818;8.484;2023-03-19T02:45:13;12.90;99.90
4564;DHT22;2294;51.818;8.484;2023-03-19T02:47:41;12.80;99.90
4564;DHT22;2294;51.818;8.484;2023-03-19T02:50:09;12.80;99.90
4564;DHT22;2294;51.818;8.484;2023-03-19T02:52:36;13.00;99.90
4564;DHT22;2294;51.818;8.484;2023-03-19T02:55:04;12.80;99.90
4564;DHT22;2294;51.818;8.484;2023-03-19T02:57:31;13.40;99.90
4564;DHT22;2294;51.818;8.484;2023-03-19T02:59:57;12.80;99.90
4564;DHT22;2294;51.818;8.484;2023-03-19T03:02:26;12.80;99.90
4564;DHT22;2294;51.818;8.484;2023-03-19T03:04:53;12.80;99.90
4564;DHT22;2294;51.818;8.484;2023-03-19T03:07:20;12.90;99.90
4564;DHT22;2294;51.818;8.484;2023-03-19T03:09:47;13.10;99.90
4564;DHT22;2294;51.818;8.484;2023-03-19T03:12:14;13.10;99.90
4564;DHT22;2294;51.818;8.484;2023-03-19T03:14:41;13.10;99.90
4564;DHT22;2294;51.818;8.484;2023-03-19T03:17:08;13.10;99.90
4564;DHT22;2294;51.818;8.484;2023-03-19T03:19:36;13.10;99.90
4564;DHT22;2294;51.818;8.484;2023-03-19T03:22:03;13.10;99.90
4564;DHT22;2294;51.818;8.484;2023-03-19T03:24:31;13.20;99.90
4564;DHT22;2294;51.818;8.484;2023-03-19T03:26:57;13.10;99.90
4564;DHT22;2294;51.818;8.484;2023-03-19T03:29:24;13.00;99.90
4564;DHT22;2294;51.818;8.484;2023-03-19T03:31:51;12.90;99.90
4564;DHT22;2294;51.818;8.484;2023-03-19T03:34:18;12.90;99.90
4564;DHT22;2294;51.818;8.484;2023-03-19T03:36:46;12.80;99.90
4564;DHT22;2294;51.818;8.484;2023-03-19T03:39:13;12.70;99.90
4564;DHT22;2294;51.818;8.484;2023-03-19T03:41:40;12.80;99.90
4564;DHT22;2294;51.818;8.484;2023-03-19T03:44:07;12.80;99.90
4564;DHT22;2294;51.818;8.484;2023-03-19T03:46:34;12.80;99.90
4564;DHT22;2294;51.818;8.484;2023-03-19T03:49:01;12.90;99.90
4564;DHT22;2294;51.818;8.484;2023-03-19T03:51:28;12.80;99.90
4564;DHT22;2294;51.818;8.484;2023-03-19T03:53:56;12.80;99.90
4564;DHT22;2294;51.818;8.484;2023-03-19T03:56:23;12.60;99.90
4564;DHT22;2294;51.818;8.484;2023-03-19T03:58:50;12.60;99.90
4564;DHT22;2294;51.818;8.484;2023-03-19T04:01:18;12.50;99.90
4564;DHT22;2294;51.818;8.484;2023-03-19T04:03:46;12.70;99.90
4564;DHT22;2294;51.818;8.484;2023-03-19T04:06:14;12.70;99.90
4564;DHT22;2294;51.818;8.484;2023-03-19T04:08:41;12.70;99.90
4564;DHT22;2294;51.818;8.484;2023-03-19T04:11:10;12.70;99.90
4564;DHT22;2294;51.818;8.484;2023-03-19T04:13:37;12.70;99.90
4564;DHT22;2294;51.818;8.484;2023-03-19T04:16:04;12.70;99.90
4564;DHT22;2294;51.818;8.484;2023-03-19T04:18:32;12.70;99.90
4564;DHT22;2294;51.818;8.484;2023-03-19T04:20:59;12.70;99.90
4564;DHT22;2294;51.818;8.484;2023-03-19T04:23:26;12.70;99.90
4564;DHT22;2294;51.818;8.484;2023-03-19T04:25:57;12.60;99.90
4564;DHT22;2294;51.818;8.484;2023-03-19T04:28:26;12.60;99.90
4564;DHT22;2294;51.818;8.484;2023-03-19T04:30:58;12.80;99.90
4564;DHT22;2294;51.818;8.484;2023-03-19T04:33:25;12.80;99.90
4564;DHT22;2294;51.818;8.484;2023-03-19T04:35:52;12.80;99.90
4564;DHT22;2294;51.818;8.484;2023-03-19T04:38:20;12.80;99.90
4564;DHT22;2294;51.818;8.484;2023-03-19T04:40:47;12.90;99.90
4564;DHT22;2294;51.818;8.484;2023-03-19T04:43:14;12.80;99.90
4564;DHT22;2294;51.818;8.484;2023-03-19T04:45:42;12.90;99.90
4564;DHT22;2294;51.818;8.484;2023-03-19T04:48:09;13.00;99.90
4564;DHT22;2294;51.818;8.484;2023-03-19T04:50:37;12.90;99.90
4564;DHT22;2294;51.818;8.484;2023-03-19T04:53:05;12.90;99.90
4564;DHT22;2294;51.818;8.484;2023-03-19T04:55:32;12.80;99.90
4564;DHT22;2294;51.818;8.484;2023-03-19T04:57:59;12.90;99.90
4564;DHT22;2294;51.818;8.484;2023-03-19T05:00:26;12.70;99.90
4564;DHT22;2294;51.818;8.484;2023-03-19T05:02:56;12.70;99.90
4564;DHT22;2294;51.818;8.484;2023-03-19T05:05:23;12.70;99.90
4564;DHT22;2294;51.818;8.484;2023-03-19T05:07:50;12.40;99.90
4564;DHT22;2294;51.818;8.484;2023-03-19T05:10:17;12.50;99.90
4564;DHT22;2294;51.818;8.484;2023-03-19T05:12:44;12.50;99.90
4564;DHT22;2294;51.818;8.484;2023-03-19T05:15:11;12.50;99.90
4564;DHT22;2294;51.818;8.484;2023-03-19T05:17:38;12.70;99.90
4564;DHT22;2294;51.818;8.484;2023-03-19T05:20:07;12.60;99.90
4564;DHT22;2294;51.818;8.484;2023-03-19T05:22:36;12.40;99.90
4564;DHT22;2294;51.818;8.484;2023-03-19T05:25:03;12.40;99.90
4564;DHT22;2294;51.818;8.484;2023-03-19T05:27:31;12.20;99.90
4564;DHT22;2294;51.818;8.484;2023-03-19T05:29:58;12.00;99.90
4564;DHT22;2294;51.818;8.484;2023-03-19T05:32:26;12.00;99.90
4564;DHT22;2294;51.818;8.484;2023-03-19T05:34:52;11.90;99.90
4564;DHT22;2294;51.818;8.484;2023-03-19T05:37:21;11.70;99.90
4564;DHT22;2294;51.818;8.484;2023-03-19T05:39:47;11.70;99.90
4564;DHT22;2294;51.818;8.484;2023-03-19T05:42:14;11.70;99.90
4564;DHT22;2294;51.818;8.484;2023-03-19T05:44:41;11.80;99.90
4564;DHT22;2294;51.818;8.484;2023-03-19T05:47:09;11.80;99.90
4564;DHT22;2294;51.818;8.484;2023-03-19T05:49:37;11.80;99.90
4564;DHT22;2294;51.818;8.484;2023-03-19T05:52:04;11.70;99.90
4564;DHT22;2294;51.818;8.484;2023-03-19T05:54:33;11.80;99.90
4564;DHT22;2294;51.818;8.484;2023-03-19T05:57:00;11.90;99.90
4564;DHT22;2294;51.818;8.484;2023-03-19T05:59:27;12.10;99.90
4564;DHT22;2294;51.818;8.484;2023-03-19T06:01:54;12.20;99.90
4564;DHT22;2294;51.818;8.484;2023-03-19T06:04:21;12.20;99.90
4564;DHT22;2294;51.818;8.484;2023-03-19T06:06:48;12.20;99.90
4564;DHT22;2294;51.818;8.484;2023-03-19T06:09:15;12.10;99.90
4564;DHT22;2294;51.818;8.484;2023-03-19T06:11:43;12.20;99.90
4564;DHT22;2294;51.818;8.484;2023-03-19T06:14:10;12.10;99.90
4564;DHT22;2294;51.818;8.484;2023-03-19T06:16:37;12.20;99.90
4564;DHT22;2294;51.818;8.484;2023-03-19T06:19:04;12.30;99.90
4564;DHT22;2294;51.818;8.484;2023-03-19T06:21:32;12.50;99.90
4564;DHT22;2294;51.818;8.484;2023-03-19T06:23:58;12.70;99.90
4564;DHT22;2294;51.818;8.484;2023-03-19T06:26:26;12.80;99.90
4564;DHT22;2294;51.818;8.484;2023-03-19T06:28:54;13.90;99.90
4564;DHT22;2294;51.818;8.484;2023-03-19T06:31:22;13.20;99.90
4564;DHT22;2294;51.818;8.484;2023-03-19T06:33:49;13.30;99.90
4564;DHT22;2294;51.818;8.484;2023-03-19T06:36:16;13.50;99.90
4564;DHT22;2294;51.818;8.484;2023-03-19T06:38:44;13.50;99.90
4564;DHT22;2294;51.818;8.484;2023-03-19T06:41:11;13.70;99.90
4564;DHT22;2294;51.818;8.484;2023-03-19T06:43:38;13.70;99.90
4564;DHT22;2294;51.818;8.484;2023-03-19T06:46:08;13.60;99.90
4564;DHT22;2294;51.818;8.484;2023-03-19T06:48:35;13.70;99.90
4564;DHT22;2294;51.818;8.484;2023-03-19T06:51:02;13.90;99.90
4564;DHT22;2294;51.818;8.484;2023-03-19T06:53:29;14.00;99.90
4564;DHT22;2294;51.818;8.484;2023-03-19T06:55:56;14.00;99.90
4564;DHT22;2294;51.818;8.484;2023-03-19T06:58:23;14.20;99.90
4564;DHT22;2294;51.818;8.484;2023-03-19T07:00:51;14.30;99.90
4564;DHT22;2294;51.818;8.484;2023-03-19T07:03:19;14.40;99.90
4564;DHT22;2294;51.818;8.484;2023-03-19T07:05:47;14.50;99.90
4564;DHT22;2294;51.818;8.484;2023-03-19T07:08:15;14.50;99.90
4564;DHT22;2294;51.818;8.484;2023-03-19T07:10:42;14.70;99.90
4564;DHT22;2294;51.818;8.484;2023-03-19T07:13:09;14.70;99.90
4564;DHT22;2294;51.818;8.484;2023-03-19T07:15:36;14.90;99.90
4564;DHT22;2294;51.818;8.484;2023-03-19T07:18:03;15.00;99.90
4564;DHT22;2294;51.818;8.484;2023-03-19T07:20:32;15.00;99.90
4564;DHT22;2294;51.818;8.484;2023-03-19T07:22:59;15.00;99.90
4564;DHT22;2294;51.818;8.484;2023-03-19T07:25:26;15.00;99.90
4564;DHT22;2294;51.818;8.484;2023-03-19T07:27:53;15.00;99.90
4564;DHT22;2294;51.818;8.484;2023-03-19T07:30:20;15.00;99.90
4564;DHT22;2294;51.818;8.484;2023-03-19T07:32:48;15.20;99.90
4564;DHT22;2294;51.818;8.484;2023-03-19T07:35:15;15.30;99.90
4564;DHT22;2294;51.818;8.484;2023-03-19T07:37:43;15.40;99.90
4564;DHT22;2294;51.818;8.484;2023-03-19T07:40:11;15.50;99.90
4564;DHT22;2294;51.818;8.484;2023-03-19T07:42:38;15.30;99.90
4564;DHT22;2294;51.818;8.484;2023-03-19T07:45:06;15.20;99.90
4564;DHT22;2294;51.818;8.484;2023-03-19T07:47:34;15.00;99.90
4564;DHT22;2294;51.818;8.484;2023-03-19T07:50:01;14.90;99.90
4564;DHT22;2294;51.818;8.484;2023-03-19T07:52:28;14.60;99.90
4564;DHT22;2294;51.818;8.484;2023-03-19T07:54:56;14.50;99.90
4564;DHT22;2294;51.818;8.484;2023-03-19T07:57:23;14.30;99.90
4564;DHT22;2294;51.818;8.484;2023-03-19T07:59:51;14.10;99.90
4564;DHT22;2294;51.818;8.484;2023-03-19T08:02:18;14.00;99.90
4564;DHT22;2294;51.818;8.484;2023-03-19T08:04:45;13.70;99.90
4564;DHT22;2294;51.818;8.484;2023-03-19T08:07:12;13.60;99.90
4564;DHT22;2294;51.818;8.484;2023-03-19T08:09:40;13.60;99.90
4564;DHT22;2294;51.818;8.484;2023-03-19T08:12:09;13.70;99.90
4564;DHT22;2294;51.818;8.484;2023-03-19T08:14:36;13.60;99.90
4564;DHT22;2294;51.818;8.484;2023-03-19T08:17:03;13.70;99.90
4564;DHT22;2294;51.818;8.484;2023-03-19T08:19:30;13.80;99.90
4564;DHT22;2294;51.818;8.484;2023-03-19T08:21:57;13.90;99.90
4564;DHT22;2294;51.818;8.484;2023-03-19T08:24:24;13.90;99.90
4564;DHT22;2294;51.818;8.484;2023-03-19T08:26:51;13.90;99.90
4564;DHT22;2294;51.818;8.484;2023-03-19T08:29:20;14.00;99.90
4564;DHT22;2294;51.818;8.484;2023-03-19T08:31:47;13.90;99.90
4564;DHT22;2294;51.818;8.484;2023-03-19T08:34:14;13.80;99.90
4564;DHT22;2294;51.818;8.484;2023-03-19T08:36:41;13.60;99.90
4564;DHT22;2294;51.818;8.484;2023-03-19T08:39:08;13.50;99.90
4564;DHT22;2294;51.818;8.484;2023-03-19T08:41:35;13.30;99.90
4564;DHT22;2294;51.818;8.484;2023-03-19T08:44:02;13.20;99.90
4564;DHT22;2294;51.818;8.484;2023-03-19T08:46:30;13.20;99.90
4564;DHT22;2294;51.818;8.484;2023-03-19T08:48:58;13.20;99.90
4564;DHT22;2294;51.818;8.484;2023-03-19T08:51:25;13.30;99.90
4564;DHT22;2294;51.818;8.484;2023-03-19T08:53:52;13.20;99.90
4564;DHT22;2294;51.818;8.484;2023-03-19T08:56:20;13.30;99.90
4564;DHT22;2294;51.818;8.484;2023-03-19T08:58:47;13.40;99.90
4564;DHT22;2294;51.818;8.484;2023-03-19T09:01:14;13.50;99.90
4564;DHT22;2294;51.818;8.484;2023-03-19T09:03:43;13.60;99.90
4564;DHT22;2294;51.818;8.484;2023-03-19T09:06:11;13.40;99.90
4564;DHT22;2294;51.818;8.484;2023-03-19T09:08:39;13.30;99.90
4564;DHT22;2294;51.818;8.484;2023-03-19T09:11:06;13.40;99.90
4564;DHT22;2294;51.818;8.484;2023-03-19T09:13:35;13.50;99.90
4564;DHT22;2294;51.818;8.484;2023-03-19T09:16:02;13.60;99.90
4564;DHT22;2294;51.818;8.484;2023-03-19T09:18:29;13.50;99.90
4564;DHT22;2294;51.818;8.484;2023-03-19T09:20:58;13.70;99.90
4564;DHT22;2294;51.818;8.484;2023-03-19T09:23:25;13.70;99.90
4564;DHT22;2294;51.818;8.484;2023-03-19T09:25:52;13.60;99.90
4564;DHT22;2294;51.818;8.484;2023-03-19T09:28:20;13.50;99.90
4564;DHT22;2294;51.818;8.484;2023-03-19T09:30:47;13.60;99.90
4564;DHT22;2294;51.818;8.484;2023-03-19T09:33:15;13.60;99.90
4564;DHT22;2294;51.818;8.484;2023-03-19T09:35:42;13.80;99.90
4564;DHT22;2294;51.818;8.484;2023-03-19T09:38:15;13.70;99.90
4564;DHT22;2294;51.818;8.484;2023-03-19T09:40:44;13.90;99.90
4564;DHT22;2294;51.818;8.484;2023-03-19T09:43:25;13.80;99.90
4564;DHT22;2294;51.818;8.484;2023-03-19T09:45:58;13.70;99.90
4564;DHT22;2294;51.818;8.484;2023-03-19T09:48:32;13.90;99.90
4564;DHT22;2294;51.818;8.484;2023-03-19T09:51:02;14.10;99.90
4564;DHT22;2294;51.818;8.484;2023-03-19T09:53:38;14.00;99.90
4564;DHT22;2294;51.818;8.484;2023-03-19T09:56:12;13.80;99.90
4564;DHT22;2294;51.818;8.484;2023-03-19T09:58:41;13.80;99.90
4564;DHT22;2294;51.818;8.484;2023-03-19T10:01:23;13.70;99.90
4564;DHT22;2294;51.818;8.484;2023-03-19T10:04:23;13.90;99.90
4564;DHT22;2294;51.818;8.484;2023-03-19T10:07:02;13.90;99.90
4564;DHT22;2294;51.818;8.484;2023-03-19T10:09:45;13.90;99.90
4564;DHT22;2294;51.818;8.484;2023-03-19T10:12:24;14.20;99.90
4564;DHT22;2294;51.818;8.484;2023-03-19T10:15:08;14.50;99.90
4564;DHT22;2294;51.818;8.484;2023-03-19T10:17:39;14.60;99.90
4564;DHT22;2294;51.818;8.484;2023-03-19T10:20:11;14.90;99.90
4564;DHT22;2294;51.818;8.484;2023-03-19T10:22:45;15.00;99.90
4564;DHT22;2294;51.818;8.484;2023-03-19T10:25:19;15.10;99.90
4564;DHT22;2294;51.818;8.484;2023-03-19T10:27:52;14.60;99.90
4564;DHT22;2294;51.818;8.484;2023-03-19T10:30:20;14.90;99.90
4564;DHT22;2294;51.818;8.484;2023-03-19T10:32:52;15.00;99.90
4564;DHT22;2294;51.818;8.484;2023-03-19T10:35:38;15.00;99.90
4564;DHT22;2294;51.818;8.484;2023-03-19T10:38:17;15.30;99.90
4564;DHT22;2294;51.818;8.484;2023-03-19T10:40:55;14.90;99.90
4564;DHT22;2294;51.818;8.484;2023-03-19T10:43:28;14.90;99.90
4564;DHT22;2294;51.818;8.484;2023-03-19T10:45:56;15.30;99.90
4564;DHT22;2294;51.818;8.484;2023-03-19T10:48:25;15.00;99.90
4564;DHT22;2294;51.818;8.484;2023-03-19T10:50:55;15.20;99.90
4564;DHT22;2294;51.818;8.484;2023-03-19T10:53:30;14.60;99.90
4564;DHT22;2294;51.818;8.484;2023-03-19T10:56:02;14.70;99.90
4564;DHT22;2294;51.818;8.484;2023-03-19T10:58:31;14.60;99.90
4564;DHT22;2294;51.818;8.484;2023-03-19T11:01:05;14.50;99.90
4564;DHT22;2294;51.818;8.484;2023-03-19T11:03:34;14.50;99.90
4564;DHT22;2294;51.818;8.484;2023-03-19T11:06:15;14.50;99.90
4564;DHT22;2294;51.818;8.484;2023-03-19T11:08:49;14.70;99.90
4564;DHT22;2294;51.818;8.484;2023-03-19T11:11:31;14.80;99.90
4564;DHT22;2294;51.818;8.484;2023-03-19T11:14:06;14.80;99.90
4564;DHT22;2294;51.818;8.484;2023-03-19T11:16:49;15.20;99.90
4564;DHT22;2294;51.818;8.484;2023-03-19T11:19:19;15.30;99.90
4564;DHT22;2294;51.818;8.484;2023-03-19T11:22:00;15.10;99.90
4564;DHT22;2294;51.818;8.484;2023-03-19T11:24:31;15.40;99.90
4564;DHT22;2294;51.818;8.484;2023-03-19T11:27:00;15.20;99.90
4564;DHT22;2294;51.818;8.484;2023-03-19T11:29:28;15.70;99.90
4564;DHT22;2294;51.818;8.484;2023-03-19T11:32:05;15.60;99.90
4564;DHT22;2294;51.818;8.484;2023-03-19T11:34:40;15.60;99.90
4564;DHT22;2294;51.818;8.484;2023-03-19T11:37:16;15.80;99.90
4564;DHT22;2294;51.818;8.484;2023-03-19T11:39:52;15.70;99.90
4564;DHT22;2294;51.818;8.484;2023-03-19T11:42:41;16.40;99.90
4564;DHT22;2294;51.818;8.484;2023-03-19T11:45:19;16.00;99.90
4564;DHT22;2294;51.818;8.484;2023-03-19T11:47:56;15.70;99.90
4564;DHT22;2294;51.818;8.484;2023-03-19T11:50:25;15.60;99.90
4564;DHT22;2294;51.818;8.484;2023-03-19T11:53:05;15.60;99.90
4564;DHT22;2294;51.818;8.484;2023-03-19T11:55:40;15.70;99.90
4564;DHT22;2294;51.818;8.484;2023-03-19T11:58:42;15.60;99.90
4564;DHT22;2294;51.818;8.484;2023-03-19T12:01:25;15.90;99.90
4564;DHT22;2294;51.818;8.484;2023-03-19T12:04:39;16.30;99.90
4564;DHT22;2294;51.818;8.484;2023-03-19T12:07:12;16.60;99.90
4564;DHT22;2294;51.818;8.484;2023-03-19T12:09:50;16.90;99.90
4564;DHT22;2294;51.818;8.484;2023-03-19T12:12:23;16.90;99.90
4564;DHT22;2294;51.818;8.484;2023-03-19T12:15:02;16.10;99.90
4564;DHT22;2294;51.818;8.484;2023-03-19T12:17:40;16.10;99.90
4564;DHT22;2294;51.818;8.484;2023-03-19T12:20:25;16.40;99.90
4564;DHT22;2294;51.818;8.484;2023-03-19T12:23:03;16.00;99.90
4564;DHT22;2294;51.818;8.484;2023-03-19T12:25:50;16.00;99.90
4564;DHT22;2294;51.818;8.484;2023-03-19T12:28:23;16.20;99.90
4564;DHT22;2294;51.818;8.484;2023-03-19T12:31:13;16.20;99.90
4564;DHT22;2294;51.818;8.484;2023-03-19T12:33:48;16.00;99.90
4564;DHT22;2294;51.818;8.484;2023-03-19T12:36:19;16.00;99.90
4564;DHT22;2294;51.818;8.484;2023-03-19T12:38:50;16.00;99.90
4564;DHT22;2294;51.818;8.484;2023-03-19T12:41:22;16.00;99.90
4564;DHT22;2294;51.818;8.484;2023-03-19T12:43:54;15.90;99.90
4564;DHT22;2294;51.818;8.484;2023-03-19T12:46:27;16.00;99.90
4564;DHT22;2294;51.818;8.484;2023-03-19T12:49:02;15.70;99.90
4564;DHT22;2294;51.818;8.484;2023-03-19T12:51:34;15.50;99.90
4564;DHT22;2294;51.818;8.484;2023-03-19T12:54:04;15.40;99.90
4564;DHT22;2294;51.818;8.484;2023-03-19T12:56:36;15.30;99.90
4564;DHT22;2294;51.818;8.484;2023-03-19T12:59:10;15.10;99.90
4564;DHT22;2294;51.818;8.484;2023-03-19T13:01:43;15.10;99.90
4564;DHT22;2294;51.818;8.484;2023-03-19T13:04:13;15.00;99.90
4564;DHT22;2294;51.818;8.484;2023-03-19T13:06:46;14.90;99.90
4564;DHT22;2294;51.818;8.484;2023-03-19T13:09:19;14.90;99.90
4564;DHT22;2294;51.818;8.484;2023-03-19T13:11:56;14.80;99.90
4564;DHT22;2294;51.818;8.484;2023-03-19T13:14:28;14.70;99.90
4564;DHT22;2294;51.818;8.484;2023-03-19T13:17:05;14.70;99.90
4564;DHT22;2294;51.818;8.484;2023-03-19T13:19:39;14.80;99.90
4564;DHT22;2294;51.818;8.484;2023-03-19T13:22:11;14.70;99.90
4564;DHT22;2294;51.818;8.484;2023-03-19T13:24:39;14.70;99.90
4564;DHT22;2294;51.818;8.484;2023-03-19T13:27:12;14.80;99.90
4564;DHT22;2294;51.818;8.484;2023-03-19T13:29:55;14.70;99.90
4564;DHT22;2294;51.818;8.484;2023-03-19T13:32:34;14.80;99.90
4564;DHT22;2294;51.818;8.484;2023-03-19T13:35:27;14.60;99.90
4564;DHT22;2294;51.818;8.484;2023-03-19T13:37:59;14.70;99.90
4564;DHT22;2294;51.818;8.484;2023-03-19T13:40:43;14.70;99.90
4564;DHT22;2294;51.818;8.484;2023-03-19T13:46:34;14.50;99.90
4564;DHT22;2294;51.818;8.484;2023-03-19T13:49:22;14.20;99.90
4564;DHT22;2294;51.818;8.484;2023-03-19T13:51:53;14.00;99.90
4564;DHT22;2294;51.818;8.484;2023-03-19T13:54:32;14.30;99.90
4564;DHT22;2294;51.818;8.484;2023-03-19T13:57:18;14.60;99.90
4564;DHT22;2294;51.818;8.484;2023-03-19T13:59:47;14.80;99.90
4564;DHT22;2294;51.818;8.484;2023-03-19T14:02:45;14.80;99.90
4564;DHT22;2294;51.818;8.484;2023-03-19T14:05:18;14.90;99.90
4564;DHT22;2294;51.818;8.484;2023-03-19T14:07:53;15.10;99.90
4564;DHT22;2294;51.818;8.484;2023-03-19T14:10:25;15.10;99.90
4564;DHT22;2294;51.818;8.484;2023-03-19T14:13:02;15.20;99.90
4564;DHT22;2294;51.818;8.484;2023-03-19T14:15:31;15.20;99.90
4564;DHT22;2294;51.818;8.484;2023-03-19T14:18:00;15.00;99.90
4564;DHT22;2294;51.818;8.484;2023-03-19T14:20:31;15.10;99.90
4564;DHT22;2294;51.818;8.484;2023-03-19T14:23:16;15.20;99.90
4564;DHT22;2294;51.818;8.484;2023-03-19T14:25:55;15.30;99.90
4564;DHT22;2294;51.818;8.484;2023-03-19T14:28:32;14.50;99.90
4564;DHT22;2294;51.818;8.484;2023-03-19T14:31:02;15.70;99.90
4564;DHT22;2294;51.818;8.484;2023-03-19T14:33:38;16.00;99.90
4564;DHT22;2294;51.818;8.484;2023-03-19T14:36:12;16.00;99.90
4564;DHT22;2294;51.818;8.484;2023-03-19T14:38:46;16.00;99.90
4564;DHT22;2294;51.818;8.484;2023-03-19T14:41:17;16.10;99.90
4564;DHT22;2294;51.818;8.484;2023-03-19T14:44:05;16.20;99.90
4564;DHT22;2294;51.818;8.484;2023-03-19T14:46:46;16.10;99.90
4564;DHT22;2294;51.818;8.484;2023-03-19T14:52:13;16.30;99.90
4564;DHT22;2294;51.818;8.484;2023-03-19T14:54:46;16.70;99.90
4564;DHT22;2294;51.818;8.484;2023-03-19T14:57:16;17.00;99.90
4564;DHT22;2294;51.818;8.484;2023-03-19T14:59:44;16.90;99.90
4564;DHT22;2294;51.818;8.484;2023-03-19T15:02:20;16.70;99.90
4564;DHT22;2294;51.818;8.484;2023-03-19T15:04:48;16.40;99.90
4564;DHT22;2294;51.818;8.484;2023-03-19T15:07:20;16.30;99.90
4564;DHT22;2294;51.818;8.484;2023-03-19T15:09:51;16.10;99.90
4564;DHT22;2294;51.818;8.484;2023-03-19T15:12:31;16.10;99.90
4564;DHT22;2294;51.818;8.484;2023-03-19T15:15:17;15.80;99.90
4564;DHT22;2294;51.818;8.484;2023-03-19T15:17:49;15.50;99.90
4564;DHT22;2294;51.818;8.484;2023-03-19T15:20:19;15.30;99.90
4564;DHT22;2294;51.818;8.484;2023-03-19T15:22:54;15.20;99.90
4564;DHT22;2294;51.818;8.484;2023-03-19T15:25:21;15.40;99.90
4564;DHT22;2294;51.818;8.484;2023-03-19T15:28:04;15.50;99.90
4564;DHT22;2294;51.818;8.484;2023-03-19T15:30:32;15.50;99.90
4564;DHT22;2294;51.818;8.484;2023-03-19T15:32:59;15.50;99.90
4564;DHT22;2294;51.818;8.484;2023-03-19T15:35:31;15.60;99.90
4564;DHT22;2294;51.818;8.484;2023-03-19T15:38:02;15.50;99.90
4564;DHT22;2294;51.818;8.484;2023-03-19T15:40:32;15.50;99.90
4564;DHT22;2294;51.818;8.484;2023-03-19T15:43:01;15.60;99.90
4564;DHT22;2294;51.818;8.484;2023-03-19T15:45:30;15.70;99.90
4564;DHT22;2294;51.818;8.484;2023-03-19T15:48:02;16.00;99.90
4564;DHT22;2294;51.818;8.484;2023-03-19T15:50:32;16.20;99.90
4564;DHT22;2294;51.818;8.484;2023-03-19T15:53:05;16.30;99.90
4564;DHT22;2294;51.818;8.484;2023-03-19T15:55:34;16.40;99.90
4564;DHT22;2294;51.818;8.484;2023-03-19T15:58:05;16.20;99.90
4564;DHT22;2294;51.818;8.484;2023-03-19T16:00:37;16.20;99.90
4564;DHT22;2294;51.818;8.484;2023-03-19T16:03:05;16.30;99.90
4564;DHT22;2294;51.818;8.484;2023-03-19T16:05:33;16.30;99.90
4564;DHT22;2294;51.818;8.484;2023-03-19T16:08:07;16.40;99.90
4564;DHT22;2294;51.818;8.484;2023-03-19T16:10:39;16.50;99.90
4564;DHT22;2294;51.818;8.484;2023-03-19T16:13:28;16.50;99.90
4564;DHT22;2294;51.818;8.484;2023-03-19T16:16:06;16.70;99.90
4564;DHT22;2294;51.818;8.484;2023-03-19T16:18:40;16.90;99.90
4564;DHT22;2294;51.818;8.484;2023-03-19T16:21:14;17.00;99.90
4564;DHT22;2294;51.818;8.484;2023-03-19T16:23:45;17.10;99.90
4564;DHT22;2294;51.818;8.484;2023-03-19T16:26:19;17.10;99.90
4564;DHT22;2294;51.818;8.484;2023-03-19T16:28:50;17.20;99.90
4564;DHT22;2294;51.818;8.484;2023-03-19T16:31:23;17.30;99.90